Time;durP1;ratioP1;P1;durP2;ratioP2;P2;SDS_P1;SDS_P2;PMS_P1;PMS_P2;Temp;Humidity;BMP_temperature;BMP_pressure;BME280_temperature;BME280_humidity;BME280_pressure;Samples;Min_cycle;Max_cycle;Signal;HPM_P1;HPM_P2
2021/06/02 00:03:40;;;;;;;1.20;1.10;;;;;;;;;;10281497;28;20063;-57
2021/06/02 00:08:38;;;;;;;2.58;1.45;;;;;;;;;;10281913;28;20099;-57
2021/06/02 00:13:36;;;;;;;1.42;1.33;;;;;;;;;;10280850;28;20080;-56
2021/06/02 00:18:37;;;;;;;1.35;1.15;;;;;;;;;;10280567;28;20446;-58
2021/06/02 00:23:36;;;;;;;1.13;0.88;;;;;;;;;;10280469;28;20107;-57
2021/06/02 00:28:33;;;;;;;2.42;1.23;;;;;;;;;;10280355;28;20068;-58
2021/06/02 00:33:31;;;;;;;4.50;1.25;;;;;;;;;;10280080;28;20072;-58
2021/06/02 00:38:31;;;;;;;1.50;1.40;;;;;;;;;;10279447;28;20068;-57
2021/06/02 00:43:29;;;;;;;1.33;1.23;;;;;;;;;;10280134;28;20076;-58
2021/06/02 00:48:27;;;;;;;1.60;1.20;;;;;;;;;;10279623;28;20087;-58
2021/06/02 00:53:24;;;;;;;3.05;1.10;;;;;;;;;;10280160;28;20084;-57
2021/06/02 00:58:27;;;;;;;6.18;1.33;;;;;;;;;;10279346;28;20056;-58
2021/06/02 01:03:27;;;;;;;1.92;1.27;;;;;;;;;;10279108;28;20084;-57
2021/06/02 01:08:26;;;;;;;3.13;1.23;;;;;;;;;;10278748;28;20075;-58
2021/06/02 01:13:28;;;;;;;2.58;1.35;;;;;;;;;;10278715;28;20087;-58
2021/06/02 01:18:25;;;;;;;1.65;1.33;;;;;;;;;;10277035;28;20506;-57
2021/06/02 01:23:25;;;;;;;2.30;1.25;;;;;;;;;;10278335;28;20387;-58
2021/06/02 01:28:22;;;;;;;2.63;1.35;;;;;;;;;;10278237;28;20096;-58
2021/06/02 01:33:49;;;;;;;7.00;4.43;;;;;;;;;;10277990;28;20517;-58
2021/06/02 01:39:03;;;;;;;5.72;2.22;;;;;;;;;;10277655;28;20414;-57
2021/06/02 01:44:17;;;;;;;2.55;1.80;;;;;;;;;;10277452;28;20080;-58
2021/06/02 01:49:21;;;;;;;2.50;1.23;;;;;;;;;;10276263;28;20049;-58
2021/06/02 01:54:52;;;;;;;4.40;1.67;;;;;;;;;;10277221;28;20087;-57
2021/06/02 02:00:07;;;;;;;1.95;1.45;;;;;;;;;;10277131;28;20092;-58
2021/06/02 02:05:42;;;;;;;4.10;1.80;;;;;;;;;;10269998;28;20104;-58
2021/06/02 02:10:43;;;;;;;6.22;2.38;;;;;;;;;;10276429;28;20045;-57
2021/06/02 02:15:48;;;;;;;1.98;1.50;;;;;;;;;;10276072;28;20080;-59
2021/06/02 02:20:50;;;;;;;2.97;1.67;;;;;;;;;;10277135;28;20075;-57
2021/06/02 02:25:57;;;;;;;4.55;2.30;;;;;;;;;;10276664;28;20421;-58
2021/06/02 02:30:57;;;;;;;5.43;2.10;;;;;;;;;;10276531;28;20541;-52
2021/06/02 02:36:02;;;;;;;3.67;1.60;;;;;;;;;;10276487;28;20081;-58
2021/06/02 02:41:09;;;;;;;5.05;1.65;;;;;;;;;;10275694;28;20043;-57
2021/06/02 02:46:09;;;;;;;2.85;1.75;;;;;;;;;;10276215;28;20095;-57
2021/06/02 02:51:23;;;;;;;9.18;1.80;;;;;;;;;;10275425;28;20080;-57
2021/06/02 02:56:22;;;;;;;3.58;1.63;;;;;;;;;;10273773;28;20088;-58
2021/06/02 03:01:22;;;;;;;6.55;1.90;;;;;;;;;;10275390;28;20510;-58
2021/06/02 03:06:24;;;;;;;2.58;1.58;;;;;;;;;;10275402;28;20049;-58
2021/06/02 03:11:26;;;;;;;6.05;1.75;;;;;;;;;;10281684;28;20052;-57
2021/06/02 03:16:29;;;;;;;3.50;1.63;;;;;;;;;;10280018;28;20061;-58
2021/06/02 03:21:41;;;;;;;5.18;2.10;;;;;;;;;;10278720;28;20072;-58
2021/06/02 03:26:42;;;;;;;5.82;3.78;;;;;;;;;;10279702;28;20076;-58
2021/06/02 03:31:46;;;;;;;4.68;4.05;;;;;;;;;;10265056;28;20068;-57
2021/06/02 03:36:52;;;;;;;5.97;2.10;;;;;;;;;;10281751;28;20083;-58
2021/06/02 03:41:57;;;;;;;7.30;3.22;;;;;;;;;;10261268;28;20072;-58
2021/06/02 03:47:00;;;;;;;12.38;4.05;;;;;;;;;;10236448;28;20091;-59
2021/06/02 03:52:03;;;;;;;3.28;1.88;;;;;;;;;;10239303;28;20076;-57
2021/06/02 03:57:19;;;;;;;5.47;1.67;;;;;;;;;;10238484;28;20080;-57
2021/06/02 04:02:20;;;;;;;2.58;2.38;;;;;;;;;;10239593;28;20091;-59
2021/06/02 04:07:24;;;;;;;6.70;2.70;;;;;;;;;;10238595;28;20052;-59
2021/06/02 04:12:25;;;;;;;4.53;1.70;;;;;;;;;;10254130;28;20076;-59
2021/06/02 04:17:24;;;;;;;2.92;1.92;;;;;;;;;;10258672;28;20476;-56
2021/06/02 04:22:24;;;;;;;4.28;2.28;;;;;;;;;;10242941;28;20255;-57
2021/06/02 04:27:23;;;;;;;5.53;2.13;;;;;;;;;;10238747;28;20502;-57
2021/06/02 04:32:21;;;;;;;2.88;2.00;;;;;;;;;;10238330;28;20088;-58
2021/06/02 04:37:20;;;;;;;5.90;2.40;;;;;;;;;;10238498;28;20045;-56
2021/06/02 04:42:19;;;;;;;4.40;2.22;;;;;;;;;;10237805;28;20081;-57
2021/06/02 04:47:17;;;;;;;5.30;2.08;;;;;;;;;;10255427;28;20061;-57
2021/06/02 04:52:30;;;;;;;4.05;2.60;;;;;;;;;;10257747;28;20057;-57
2021/06/02 04:57:45;;;;;;;6.32;2.67;;;;;;;;;;10246554;28;20049;-58
2021/06/02 05:03:00;;;;;;;7.18;2.50;;;;;;;;;;10274371;28;20063;-56
2021/06/02 05:08:22;;;;;;;3.20;2.10;;;;;;;;;;10276029;28;20057;-55
2021/06/02 05:19:20;;;;;;;4.40;2.45;;;;;;;;;;10349800;27;20377;-58
2021/06/02 05:24:35;;;;;;;8.18;2.88;;;;;;;;;;10346304;28;20083;-57
2021/06/02 05:29:57;;;;;;;3.97;1.70;;;;;;;;;;10346536;28;20080;-57
2021/06/02 05:35:15;;;;;;;3.92;2.35;;;;;;;;;;10332852;28;20890;-57
2021/06/02 05:40:24;;;;;;;3.72;2.15;;;;;;;;;;10350261;28;20044;-58
2021/06/02 05:45:37;;;;;;;4.35;2.20;;;;;;;;;;10348584;28;20056;-56
2021/06/02 05:50:53;;;;;;;2.88;1.80;;;;;;;;;;10349726;28;20078;-57
2021/06/02 05:56:09;;;;;;;17.27;2.15;;;;;;;;;;10349828;28;20465;-58
2021/06/02 06:01:33;;;;;;;5.55;1.63;;;;;;;;;;10349024;28;20060;-58
2021/06/02 06:06:42;;;;;;;4.00;2.35;;;;;;;;;;10347480;28;20047;-56
2021/06/02 06:11:59;;;;;;;9.98;4.97;;;;;;;;;;10349160;28;20086;-57
2021/06/02 06:17:01;;;;;;;4.82;3.13;;;;;;;;;;10346727;28;20076;-56
2021/06/02 06:22:12;;;;;;;4.68;2.40;;;;;;;;;;10347969;28;20071;-57
2021/06/02 06:27:14;;;;;;;5.82;1.90;;;;;;;;;;10337445;28;20044;-58
2021/06/02 06:32:12;;;;;;;5.95;2.10;;;;;;;;;;10320412;28;20037;-58
2021/06/02 06:37:13;;;;;;;2.72;1.35;;;;;;;;;;10320682;28;20483;-57
2021/06/02 06:42:13;;;;;;;1.83;1.65;;;;;;;;;;10320829;28;20052;-57
2021/06/02 06:47:13;;;;;;;6.68;2.67;;;;;;;;;;10320659;28;20056;-58
2021/06/02 06:52:13;;;;;;;4.65;1.55;;;;;;;;;;10320162;28;20087;-58
2021/06/02 06:57:11;;;;;;;3.22;2.22;;;;;;;;;;10320084;28;20426;-56
2021/06/02 07:02:11;;;;;;;8.35;3.88;;;;;;;;;;10320062;28;20056;-57
2021/06/02 07:07:09;;;;;;;2.38;2.13;;;;;;;;;;10317875;28;20052;-57
2021/06/02 07:12:09;;;;;;;4.30;2.13;;;;;;;;;;10319568;28;20516;-57
2021/06/02 07:17:07;;;;;;;4.20;1.70;;;;;;;;;;10318839;28;20080;-57
2021/06/02 07:22:05;;;;;;;2.97;1.73;;;;;;;;;;10319586;28;20045;-57
2021/06/02 07:27:04;;;;;;;3.72;2.10;;;;;;;;;;10318928;28;20110;-57
2021/06/02 07:32:03;;;;;;;2.58;2.38;;;;;;;;;;10318663;28;20075;-57
2021/06/02 07:37:01;;;;;;;2.90;2.28;;;;;;;;;;10318873;28;20080;-56
2021/06/02 07:41:59;;;;;;;2.47;2.28;;;;;;;;;;10317960;28;20041;-57
2021/06/02 07:46:57;;;;;;;7.43;3.42;;;;;;;;;;10318087;28;20045;-58
2021/06/02 07:52:00;;;;;;;3.28;2.33;;;;;;;;;;10317766;28;20052;-55
2021/06/02 07:56:58;;;;;;;6.57;2.33;;;;;;;;;;10317609;28;20076;-56
2021/06/02 08:01:55;;;;;;;2.92;1.52;;;;;;;;;;10317642;28;20052;-56
2021/06/02 08:06:53;;;;;;;3.80;1.90;;;;;;;;;;10317272;28;20083;-57
2021/06/02 08:11:52;;;;;;;3.95;1.42;;;;;;;;;;10317353;28;20056;-58
2021/06/02 08:16:50;;;;;;;2.88;1.92;;;;;;;;;;10316187;28;20111;-58
2021/06/02 08:21:48;;;;;;;4.13;3.42;;;;;;;;;;10317077;28;20241;-57
2021/06/02 08:26:47;;;;;;;2.78;1.80;;;;;;;;;;10316440;28;20059;-57
2021/06/02 08:31:46;;;;;;;3.38;2.80;;;;;;;;;;10316487;28;20044;-57
2021/06/02 08:36:44;;;;;;;6.68;1.98;;;;;;;;;;10316208;28;20082;-57
2021/06/02 08:41:42;;;;;;;2.67;1.80;;;;;;;;;;10316285;28;20091;-58
2021/06/02 08:46:40;;;;;;;5.07;3.28;;;;;;;;;;10316003;28;20075;-56
2021/06/02 08:51:42;;;;;;;3.55;2.70;;;;;;;;;;10315593;28;20040;-57
2021/06/02 08:56:42;;;;;;;2.72;2.53;;;;;;;;;;10315550;28;20501;-57
2021/06/02 09:01:39;;;;;;;3.17;1.88;;;;;;;;;;10315743;28;20500;-56
2021/06/02 09:06:39;;;;;;;1.63;1.52;;;;;;;;;;10315721;28;20484;-58
2021/06/02 09:11:39;;;;;;;2.30;1.50;;;;;;;;;;10313631;28;20044;-58
2021/06/02 09:16:47;;;;;;;6.00;4.13;;;;;;;;;;10314664;28;20084;-58
2021/06/02 09:21:45;;;;;;;4.80;2.25;;;;;;;;;;10315082;28;20040;-58
2021/06/02 09:26:46;;;;;;;8.05;4.50;;;;;;;;;;10315094;28;20048;-58
2021/06/02 09:31:45;;;;;;;3.72;2.85;;;;;;;;;;10315120;28;20442;-58
2021/06/02 09:36:44;;;;;;;4.15;2.20;;;;;;;;;;10315106;28;20084;-58
2021/06/02 09:41:47;;;;;;;3.17;2.08;;;;;;;;;;10314791;28;20080;-58
2021/06/02 09:46:58;;;;;;;3.40;2.70;;;;;;;;;;10314743;28;20044;-58
2021/06/02 09:51:57;;;;;;;4.07;2.88;;;;;;;;;;10314758;28;20032;-54
2021/06/02 09:56:57;;;;;;;2.90;2.70;;;;;;;;;;10314512;28;20076;-58
2021/06/02 10:01:56;;;;;;;4.43;3.10;;;;;;;;;;10316389;28;20438;-57
2021/06/02 10:06:55;;;;;;;3.78;2.78;;;;;;;;;;10321236;28;20072;-58
2021/06/02 10:11:59;;;;;;;4.43;2.80;;;;;;;;;;10322004;28;20072;-57
2021/06/02 10:16:58;;;;;;;3.03;2.72;;;;;;;;;;10320588;28;20098;-55
2021/06/02 10:21:55;;;;;;;3.65;3.30;;;;;;;;;;10321474;28;20480;-57
2021/06/02 10:26:53;;;;;;;4.63;3.28;;;;;;;;;;10320469;28;20044;-58
2021/06/02 10:31:53;;;;;;;4.85;4.38;;;;;;;;;;10321189;28;20048;-57
2021/06/02 10:36:51;;;;;;;3.85;3.55;;;;;;;;;;10320802;28;20083;-58
2021/06/02 10:41:50;;;;;;;3.00;2.75;;;;;;;;;;10320483;28;20068;-57
2021/06/02 10:46:49;;;;;;;4.88;2.97;;;;;;;;;;10318979;28;20424;-57
2021/06/02 10:51:50;;;;;;;5.18;3.33;;;;;;;;;;10320570;28;20508;-57
2021/06/02 10:57:07;;;;;;;3.28;2.97;;;;;;;;;;10319185;28;20088;-56
2021/06/02 11:02:05;;;;;;;2.70;2.05;;;;;;;;;;10320321;28;20045;-57
2021/06/02 11:07:21;;;;;;;3.40;2.67;;;;;;;;;;10320008;28;20072;-57
2021/06/02 11:12:18;;;;;;;;;;;;;;;;;;10319415;28;20051;-57
2021/06/02 11:17:19;;;;;;;4.22;2.20;;;;;;;;;;10318536;28;20385;-57
2021/06/02 11:22:18;;;;;;;2.10;1.92;;;;;;;;;;10319351;28;20237;-58
2021/06/02 11:27:35;;;;;;;1.42;1.33;;;;;;;;;;10319289;28;20079;-58
2021/06/02 11:32:47;;;;;;;4.07;1.98;;;;;;;;;;10318984;28;20068;-58
2021/06/02 11:37:44;;;;;;;3.08;2.15;;;;;;;;;;10318816;28;20079;-57
2021/06/02 11:42:43;;;;;;;2.40;1.95;;;;;;;;;;10318802;28;20086;-57
2021/06/02 11:47:44;;;;;;;2.20;2.00;;;;;;;;;;10318267;28;20075;-57
2021/06/02 11:52:42;;;;;;;4.63;1.67;;;;;;;;;;10318132;28;20059;-57
2021/06/02 11:57:41;;;;;;;7.38;1.77;;;;;;;;;;10317918;28;20092;-55
2021/06/02 12:02:39;;;;;;;2.05;1.85;;;;;;;;;;10317627;28;20059;-57
2021/06/02 12:07:43;;;;;;;5.80;2.22;;;;;;;;;;10317402;28;20052;-57
2021/06/02 12:12:42;;;;;;;4.72;2.08;;;;;;;;;;10317529;28;20049;-57
2021/06/02 12:17:40;;;;;;;2.00;1.73;;;;;;;;;;10316445;28;20081;-56
2021/06/02 12:22:39;;;;;;;13.65;2.63;;;;;;;;;;10316937;28;20052;-57
2021/06/02 12:27:38;;;;;;;4.30;1.73;;;;;;;;;;10314504;28;20052;-58
2021/06/02 12:32:43;;;;;;;3.72;2.17;;;;;;;;;;10317001;28;20040;-57
2021/06/02 12:37:40;;;;;;;;;;;;;;;;;;10316800;28;20086;-55
2021/06/02 12:42:43;;;;;;;2.30;1.92;;;;;;;;;;10316571;28;19924;-55
2021/06/02 12:47:45;;;;;;;5.10;2.13;;;;;;;;;;10316325;28;20072;-58
2021/06/02 12:52:53;;;;;;;2.50;2.30;;;;;;;;;;10316126;28;20480;-58
2021/06/02 12:57:59;;;;;;;2.83;2.63;;;;;;;;;;10315848;28;20052;-58
2021/06/02 13:02:58;;;;;;;;;;;;;;;;;;10316569;28;20079;-56
2021/06/02 13:08:13;;;;;;;3.20;2.90;;;;;;;;;;10315911;28;19986;-56
2021/06/02 13:13:13;;;;;;;8.55;3.40;;;;;;;;;;10314732;28;20052;-58
2021/06/02 13:18:19;;;;;;;3.83;3.22;;;;;;;;;;10314649;28;20505;-58
2021/06/02 13:23:19;;;;;;;9.18;3.00;;;;;;;;;;10313600;28;20535;-57
2021/06/02 13:28:21;;;;;;;2.22;2.03;;;;;;;;;;10315584;28;20079;-57
2021/06/02 13:33:18;;;;;;;1.95;1.85;;;;;;;;;;10314304;28;20092;-58
2021/06/02 13:38:25;;;;;;;2.83;2.20;;;;;;;;;;10319493;28;20079;-57
2021/06/02 13:43:24;;;;;;;8.32;4.20;;;;;;;;;;10322239;28;20055;-57
2021/06/02 13:48:23;;;;;;;29.73;16.35;;;;;;;;;;10323254;28;20052;-55
2021/06/02 13:53:21;;;;;;;19.38;11.85;;;;;;;;;;10323330;28;20080;-58
2021/06/02 13:58:21;;;;;;;21.30;12.10;;;;;;;;;;10319807;28;20088;-60
2021/06/02 14:03:20;;;;;;;29.85;13.85;;;;;;;;;;10322478;28;20075;-60
2021/06/02 14:08:18;;;;;;;23.85;13.05;;;;;;;;;;10322457;28;20520;-60
2021/06/02 14:13:16;;;;;;;36.75;17.35;;;;;;;;;;10322258;28;20485;-60
2021/06/02 14:18:14;;;;;;;8.73;4.53;;;;;;;;;;10320838;28;20480;-60
2021/06/02 14:23:13;;;;;;;7.55;4.05;;;;;;;;;;10320598;28;20500;-57
2021/06/02 14:28:11;;;;;;;6.53;4.60;;;;;;;;;;10283688;28;20478;-60
2021/06/02 14:33:09;;;;;;;12.40;5.90;;;;;;;;;;10286279;28;20071;-59
2021/06/02 14:38:06;;;;;;;4.43;2.85;;;;;;;;;;10289035;28;20076;-61
2021/06/02 14:43:06;;;;;;;8.02;3.95;;;;;;;;;;10297047;28;20072;-59
2021/06/02 14:48:06;;;;;;;5.03;3.72;;;;;;;;;;10299627;28;20056;-58
2021/06/02 14:53:04;;;;;;;9.68;6.32;;;;;;;;;;10301503;28;20413;-59
2021/06/02 14:58:02;;;;;;;9.10;5.00;;;;;;;;;;10301614;28;20488;-60
2021/06/02 15:03:01;;;;;;;5.80;2.65;;;;;;;;;;10296824;28;20064;-60
2021/06/02 15:07:59;;;;;;;4.80;3.70;;;;;;;;;;10298479;28;20045;-60
2021/06/02 15:12:57;;;;;;;4.07;3.35;;;;;;;;;;10296361;28;20516;-60
2021/06/02 15:17:56;;;;;;;12.23;5.95;;;;;;;;;;10298007;28;20080;-57
2021/06/02 15:22:55;;;;;;;7.35;3.92;;;;;;;;;;10298550;28;20080;-54
2021/06/02 15:27:55;;;;;;;6.78;4.68;;;;;;;;;;10299281;28;20047;-55
2021/06/02 15:32:54;;;;;;;6.65;4.45;;;;;;;;;;10299049;28;20037;-57
2021/06/02 15:37:53;;;;;;;7.80;4.35;;;;;;;;;;10296869;28;20071;-57
2021/06/02 15:42:53;;;;;;;6.45;4.60;;;;;;;;;;10299417;28;20061;-57
2021/06/02 15:47:53;;;;;;;4.18;3.15;;;;;;;;;;10294190;28;20068;-58
2021/06/02 15:52:52;;;;;;;4.18;2.67;;;;;;;;;;10290399;28;20071;-55
2021/06/02 15:57:55;;;;;;;5.72;2.88;;;;;;;;;;10292099;28;20083;-56
2021/06/02 16:02:54;;;;;;;7.07;2.85;;;;;;;;;;10295995;28;20057;-56
2021/06/02 16:07:52;;;;;;;10.40;3.92;;;;;;;;;;10308375;28;20044;-58
2021/06/02 16:12:56;;;;;;;3.63;2.75;;;;;;;;;;10290628;28;20070;-57
2021/06/02 16:17:55;;;;;;;5.72;2.28;;;;;;;;;;10296658;28;20072;-56
2021/06/02 16:22:53;;;;;;;6.85;2.75;;;;;;;;;;10296762;28;20489;-57
2021/06/02 16:27:53;;;;;;;4.13;2.90;;;;;;;;;;10298088;28;20045;-56
2021/06/02 16:32:51;;;;;;;15.20;4.32;;;;;;;;;;10300505;28;20687;-57
2021/06/02 16:37:52;;;;;;;4.53;3.20;;;;;;;;;;10308209;28;20091;-58
2021/06/02 16:42:51;;;;;;;6.10;3.75;;;;;;;;;;10312232;28;20087;-58
2021/06/02 16:47:49;;;;;;;5.70;3.38;;;;;;;;;;10314369;28;20083;-58
2021/06/02 16:52:50;;;;;;;6.10;3.97;;;;;;;;;;10315744;28;20084;-58
2021/06/02 16:57:49;;;;;;;9.65;3.67;;;;;;;;;;10315834;28;20080;-58
2021/06/02 17:02:48;;;;;;;8.10;3.03;;;;;;;;;;10315614;28;20560;-58
2021/06/02 17:07:46;;;;;;;7.15;3.17;;;;;;;;;;10312542;28;20036;-55
2021/06/02 17:12:44;;;;;;;16.88;11.70;;;;;;;;;;10291686;28;20083;-55
2021/06/02 17:17:49;;;;;;;11.55;4.45;;;;;;;;;;10280268;28;20093;-56
2021/06/02 17:22:50;;;;;;;8.32;3.40;;;;;;;;;;10289504;28;20071;-58
2021/06/02 17:27:49;;;;;;;5.93;3.00;;;;;;;;;;10280003;28;20079;-57
2021/06/02 17:32:49;;;;;;;8.57;3.70;;;;;;;;;;10290801;28;20075;-57
2021/06/02 17:37:47;;;;;;;5.47;3.08;;;;;;;;;;10300253;28;20081;-57
2021/06/02 17:42:47;;;;;;;6.32;3.17;;;;;;;;;;10292007;28;20060;-55
2021/06/02 17:47:46;;;;;;;6.57;3.80;;;;;;;;;;10299427;28;20040;-54
2021/06/02 17:52:51;;;;;;;2.85;2.65;;;;;;;;;;10284409;28;20044;-56
2021/06/02 17:57:49;;;;;;;5.95;2.53;;;;;;;;;;10283769;28;20501;-53
2021/06/02 18:02:48;;;;;;;9.10;3.20;;;;;;;;;;10292964;28;20071;-56
2021/06/02 18:07:47;;;;;;;6.43;3.47;;;;;;;;;;10289588;28;20041;-55
2021/06/02 18:12:46;;;;;;;8.43;5.07;;;;;;;;;;10277603;28;20076;-58
2021/06/02 18:17:45;;;;;;;7.85;3.55;;;;;;;;;;10310351;28;20076;-59
2021/06/02 18:22:45;;;;;;;11.52;7.22;;;;;;;;;;10302249;28;20079;-51
2021/06/02 18:27:47;;;;;;;6.90;5.32;;;;;;;;;;10322671;28;20049;-56
2021/06/02 18:32:47;;;;;;;5.43;3.35;;;;;;;;;;10311047;28;20452;-57
2021/06/02 18:37:45;;;;;;;11.02;3.45;;;;;;;;;;10307317;28;20080;-58
2021/06/02 18:42:44;;;;;;;4.38;3.13;;;;;;;;;;10295122;28;20058;-57
2021/06/02 18:47:42;;;;;;;3.30;2.63;;;;;;;;;;10289656;28;20067;-54
2021/06/02 18:52:42;;;;;;;5.95;2.67;;;;;;;;;;10290163;28;20076;-56
2021/06/02 18:57:40;;;;;;;4.60;3.08;;;;;;;;;;10282505;28;20072;-58
2021/06/02 19:02:39;;;;;;;4.65;3.20;;;;;;;;;;10292430;28;20242;-57
2021/06/02 19:07:37;;;;;;;6.03;2.95;;;;;;;;;;10292951;28;20061;-58
2021/06/02 19:12:35;;;;;;;8.73;3.38;;;;;;;;;;10305779;28;20106;-57
2021/06/02 19:17:33;;;;;;;2.45;2.25;;;;;;;;;;10299146;28;20084;-58
2021/06/02 19:22:32;;;;;;;4.25;3.05;;;;;;;;;;10289546;28;20041;-58
2021/06/02 19:27:30;;;;;;;8.38;3.60;;;;;;;;;;10281275;28;20528;-58
2021/06/02 19:32:31;;;;;;;3.67;2.50;;;;;;;;;;10316222;28;20118;-58
2021/06/02 19:37:29;;;;;;;3.13;2.45;;;;;;;;;;10318366;28;20436;-58
2021/06/02 19:42:28;;;;;;;3.40;2.60;;;;;;;;;;10309649;28;20068;-57
2021/06/02 19:47:26;;;;;;;3.83;2.40;;;;;;;;;;10294766;28;20064;-57
2021/06/02 19:52:24;;;;;;;4.70;2.35;;;;;;;;;;10281433;28;20053;-57
2021/06/02 19:57:22;;;;;;;3.00;2.63;;;;;;;;;;10292006;28;20080;-55
2021/06/02 20:02:24;;;;;;;6.82;3.05;;;;;;;;;;10290013;28;20159;-56
2021/06/02 20:07:22;;;;;;;3.50;2.78;;;;;;;;;;10295049;28;20068;-58
2021/06/02 20:12:25;;;;;;;9.43;3.00;;;;;;;;;;10299544;28;20525;-55
2021/06/02 20:17:24;;;;;;;3.42;2.00;;;;;;;;;;10287825;28;20073;-57
2021/06/02 20:22:22;;;;;;;2.67;2.47;;;;;;;;;;10285463;28;20060;-57
2021/06/02 20:27:20;;;;;;;9.07;3.45;;;;;;;;;;10301409;28;20072;-57
2021/06/02 20:32:37;;;;;;;2.75;2.55;;;;;;;;;;10317664;28;20071;-56
2021/06/02 20:37:37;;;;;;;4.68;2.95;;;;;;;;;;10317996;28;20409;-58
2021/06/02 20:42:36;;;;;;;9.55;2.65;;;;;;;;;;10317555;28;20076;-58
2021/06/02 20:47:34;;;;;;;3.33;2.90;;;;;;;;;;10317529;28;20043;-58
2021/06/02 20:52:33;;;;;;;7.30;2.95;;;;;;;;;;10317591;28;20075;-58
2021/06/02 20:57:33;;;;;;;3.20;2.60;;;;;;;;;;10317322;28;20040;-59
2021/06/02 21:02:31;;;;;;;11.70;2.72;;;;;;;;;;10317212;28;20111;-58
2021/06/02 21:07:28;;;;;;;10.95;3.33;;;;;;;;;;10317206;28;20055;-58
2021/06/02 21:12:26;;;;;;;4.30;2.50;;;;;;;;;;10317098;28;20048;-58
2021/06/02 21:17:26;;;;;;;4.22;2.58;;;;;;;;;;10315840;28;20052;-57
2021/06/02 21:22:24;;;;;;;7.20;3.45;;;;;;;;;;10316651;28;20072;-57
2021/06/02 21:27:21;;;;;;;6.80;2.78;;;;;;;;;;10314566;28;20413;-59
2021/06/02 21:32:19;;;;;;;4.35;3.08;;;;;;;;;;10316409;28;20049;-57
2021/06/02 21:37:18;;;;;;;4.22;2.20;;;;;;;;;;10316467;28;20045;-57
2021/06/02 21:42:16;;;;;;;5.55;2.58;;;;;;;;;;10316343;28;20122;-58
2021/06/02 21:47:17;;;;;;;2.97;2.70;;;;;;;;;;10316426;28;20077;-58
2021/06/02 21:52:15;;;;;;;6.50;2.58;;;;;;;;;;10316341;28;20041;-58
2021/06/02 21:57:14;;;;;;;11.93;2.75;;;;;;;;;;10315889;28;20092;-58
2021/06/02 22:02:16;;;;;;;5.13;2.75;;;;;;;;;;10323907;28;20048;-59
2021/06/02 22:07:14;;;;;;;5.18;2.60;;;;;;;;;;10323904;28;20040;-58
2021/06/02 22:12:12;;;;;;;5.05;2.92;;;;;;;;;;10323007;28;20504;-58
2021/06/02 22:17:13;;;;;;;3.55;2.78;;;;;;;;;;10321822;28;20497;-56
2021/06/02 22:22:10;;;;;;;5.45;3.08;;;;;;;;;;10322582;28;20083;-58
2021/06/02 22:27:08;;;;;;;3.55;2.63;;;;;;;;;;10323091;28;20052;-58
2021/06/02 22:32:06;;;;;;;5.90;3.10;;;;;;;;;;10322064;28;20055;-58
2021/06/02 22:37:06;;;;;;;10.18;3.42;;;;;;;;;;10322562;28;20079;-56
2021/06/02 22:42:04;;;;;;;8.45;2.97;;;;;;;;;;10322427;28;20075;-57
2021/06/02 22:47:02;;;;;;;3.67;2.80;;;;;;;;;;10321524;28;20083;-58
2021/06/02 22:52:00;;;;;;;5.13;3.10;;;;;;;;;;10321944;28;20040;-58
2021/06/02 22:56:59;;;;;;;10.88;3.60;;;;;;;;;;10322132;28;20049;-57
2021/06/02 23:01:57;;;;;;;4.40;2.60;;;;;;;;;;10321737;28;20517;-57
2021/06/02 23:06:55;;;;;;;3.90;3.60;;;;;;;;;;10321310;28;20397;-58
2021/06/02 23:11:53;;;;;;;5.72;4.25;;;;;;;;;;10318720;28;20429;-59
2021/06/02 23:16:52;;;;;;;5.68;3.92;;;;;;;;;;10319160;28;20052;-58
2021/06/02 23:21:50;;;;;;;4.85;3.72;;;;;;;;;;10320670;28;20090;-58
2021/06/02 23:26:48;;;;;;;5.55;3.72;;;;;;;;;;10307281;28;20096;-58
2021/06/02 23:31:46;;;;;;;5.38;3.50;;;;;;;;;;10307305;28;20065;-57
2021/06/02 23:36:46;;;;;;;6.90;3.58;;;;;;;;;;10296329;28;20044;-58
2021/06/02 23:41:44;;;;;;;6.38;3.20;;;;;;;;;;10281314;28;20052;-58
2021/06/02 23:46:42;;;;;;;4.28;3.13;;;;;;;;;;10309760;28;20049;-57
2021/06/02 23:51:40;;;;;;;4.10;2.97;;;;;;;;;;10319497;28;20072;-57
2021/06/02 23:56:39;;;;;;;13.13;3.63;;;;;;;;;;10319184;28;20045;-58
